createdAt,value
2018-03-23T00:00:47.059Z,99926.80
2018-03-23T00:03:14.685Z,99927.98
2018-03-23T00:08:24.770Z,99923.25
2018-03-23T00:10:52.446Z,99926.98
2018-03-23T00:13:21.184Z,99935.06
2018-03-23T00:15:48.810Z,99929.19
2018-03-23T00:18:17.267Z,99925.46
2018-03-23T00:20:44.961Z,99934.89
2018-03-23T00:23:12.723Z,99926.66
2018-03-23T00:25:41.081Z,99927.56
2018-03-23T00:28:08.703Z,99939.03
2018-03-23T00:30:36.335Z,99935.23
2018-03-23T00:33:05.030Z,99938.48
2018-03-23T00:35:32.821Z,99936.48
2018-03-23T00:38:00.552Z,99931.78
2018-03-23T00:40:29.761Z,99933.39
2018-03-23T00:42:58.276Z,99941.27
2018-03-23T00:45:25.956Z,99933.19
2018-03-23T00:47:53.807Z,99936.23
2018-03-23T00:50:22.152Z,99933.05
2018-03-23T00:52:50.638Z,99935.26
2018-03-23T00:55:18.300Z,99933.18
2018-03-23T00:57:46.356Z,99932.35
2018-03-23T01:00:14.552Z,99929.80
2018-03-23T01:02:43.851Z,99928.00
2018-03-23T01:05:12.063Z,99929.11
2018-03-23T01:07:40.375Z,99933.95
2018-03-23T01:10:07.989Z,99933.84
2018-03-23T01:12:36.214Z,99934.75
2018-03-23T01:15:04.188Z,99925.77
2018-03-23T01:17:31.762Z,99920.14
2018-03-23T01:20:00.334Z,99930.71
2018-03-23T01:22:27.925Z,99931.47
2018-03-23T01:24:55.585Z,99929.53
2018-03-23T01:27:23.228Z,99925.05
2018-03-23T01:29:50.808Z,99918.58
2018-03-23T01:32:18.549Z,99916.92
2018-03-23T01:34:46.200Z,99922.17
2018-03-23T01:37:13.840Z,99920.82
2018-03-23T01:39:42.303Z,99923.31
2018-03-23T01:42:09.840Z,99929.12
2018-03-23T01:44:38.253Z,99922.23
2018-03-23T01:47:06.581Z,99920.51
2018-03-23T01:49:34.531Z,99928.32
2018-03-23T01:52:04.164Z,99930.78
2018-03-23T01:54:31.799Z,99930.64
2018-03-23T01:56:59.407Z,99932.64
2018-03-23T01:59:27.631Z,99941.35
2018-03-23T02:01:55.944Z,99928.91
2018-03-23T02:04:23.576Z,99923.44
2018-03-23T02:06:51.216Z,99916.20
2018-03-23T02:09:19.356Z,99913.42
2018-03-23T02:11:47.528Z,99912.89
2018-03-23T02:14:15.760Z,99913.08
2018-03-23T02:16:43.421Z,99910.39
2018-03-23T02:19:11.602Z,99913.62
2018-03-23T02:21:39.301Z,99915.67
2018-03-23T02:24:06.956Z,99905.67
2018-03-23T02:26:35.643Z,99902.36
2018-03-23T02:29:03.610Z,99906.23
2018-03-23T02:31:31.301Z,99916.02
2018-03-23T02:33:58.965Z,99912.97
2018-03-23T02:36:27.197Z,99908.05
2018-03-23T02:38:54.800Z,99910.41
2018-03-23T02:41:22.361Z,99908.88
2018-03-23T02:43:50.588Z,99909.50
2018-03-23T02:46:18.186Z,99902.64
2018-03-23T02:48:45.849Z,99910.58
2018-03-23T02:51:14.304Z,99909.78
2018-03-23T02:53:42.971Z,99915.72
2018-03-23T02:56:11.275Z,99911.00
2018-03-23T02:58:39.545Z,99912.93
2018-03-23T03:01:08.267Z,99912.68
2018-03-23T03:03:36.199Z,99918.36
2018-03-23T03:06:04.072Z,99915.15
2018-03-23T03:08:32.634Z,99918.75
2018-03-23T03:11:00.268Z,99918.28
2018-03-23T03:13:27.908Z,99923.05
2018-03-23T03:15:55.547Z,99921.18
2018-03-23T03:18:24.122Z,99922.98
2018-03-23T03:20:51.762Z,99925.75
2018-03-23T03:23:19.361Z,99926.37
2018-03-23T03:25:47.821Z,99925.33
2018-03-23T03:28:15.443Z,99923.31
2018-03-23T03:30:43.005Z,99916.00
2018-03-23T03:33:11.653Z,99921.80
2018-03-23T03:35:39.305Z,99915.44
2018-03-23T03:38:07.021Z,99915.23
2018-03-23T03:40:34.882Z,99913.22
2018-03-23T03:43:04.078Z,99920.27
2018-03-23T03:45:31.682Z,99916.52
2018-03-23T03:47:59.328Z,99912.02
2018-03-23T03:50:27.590Z,99919.51
2018-03-23T03:52:55.968Z,99923.45
2018-03-23T03:55:24.230Z,99922.88
2018-03-23T03:57:51.830Z,99923.11
2018-03-23T04:00:20.119Z,99918.53
2018-03-23T04:02:48.176Z,99915.22
2018-03-23T04:05:15.791Z,99920.41
2018-03-23T04:07:43.425Z,99922.63
2018-03-23T04:10:11.698Z,99916.10
2018-03-23T04:12:39.321Z,99915.77
2018-03-23T04:15:06.949Z,99915.08
2018-03-23T04:17:35.875Z,99912.32
2018-03-23T04:20:07.449Z,99922.21
2018-03-23T04:22:35.167Z,99917.63
2018-03-23T04:25:03.916Z,99912.42
2018-03-23T04:27:31.573Z,99920.89
2018-03-23T04:29:59.271Z,99922.68
2018-03-23T04:32:27.445Z,99921.92
2018-03-23T04:34:55.743Z,99927.23
2018-03-23T04:37:23.356Z,99924.00
2018-03-23T04:39:51.041Z,99929.11
2018-03-23T04:42:18.655Z,99926.50
2018-03-23T04:44:46.264Z,99924.50
2018-03-23T04:47:13.881Z,99922.72
2018-03-23T04:49:41.683Z,99929.22
2018-03-23T04:52:10.128Z,99927.98
2018-03-23T04:54:38.683Z,99930.13
2018-03-23T04:57:06.312Z,99937.19
2018-03-23T04:59:36.228Z,99919.31
2018-03-23T05:02:04.736Z,99920.92
2018-03-23T05:04:32.434Z,99923.53
2018-03-23T05:07:00.182Z,99923.39
2018-03-23T05:09:28.439Z,99928.09
2018-03-23T05:11:56.103Z,99926.67
2018-03-23T05:14:23.655Z,99924.58
2018-03-23T05:16:51.399Z,99927.56
2018-03-23T05:19:19.495Z,99927.13
2018-03-23T05:21:47.227Z,99931.13
2018-03-23T05:24:15.664Z,99929.06
2018-03-23T05:26:43.395Z,99932.50
2018-03-23T05:29:12.123Z,99933.81
2018-03-23T05:31:39.830Z,99931.69
2018-03-23T05:34:07.482Z,99931.42
2018-03-23T05:36:35.282Z,99942.53
2018-03-23T05:39:03.088Z,99940.22
2018-03-23T05:41:30.816Z,99936.39
2018-03-23T05:43:58.929Z,99936.09
2018-03-23T05:46:26.628Z,99937.84
2018-03-23T05:48:54.330Z,99938.45
2018-03-23T05:51:22.685Z,99933.30
2018-03-23T05:53:50.264Z,99939.32
2018-03-23T05:56:19.463Z,99941.32
2018-03-23T05:58:47.709Z,99942.22
2018-03-23T06:01:15.890Z,99939.33
2018-03-23T06:03:43.492Z,99941.21
2018-03-23T06:06:11.086Z,99946.39
2018-03-23T06:08:39.160Z,99943.79
2018-03-23T06:11:06.789Z,99948.98
2018-03-23T06:13:34.715Z,99950.76
2018-03-23T06:16:02.479Z,99949.16
2018-03-23T06:18:30.646Z,99944.48
2018-03-23T06:20:58.739Z,99945.80
2018-03-23T06:23:26.337Z,99941.27
2018-03-23T06:25:54.732Z,99946.91
2018-03-23T06:28:22.840Z,99953.58
2018-03-23T06:30:50.385Z,99953.59
2018-03-23T06:33:17.992Z,99958.75
2018-03-23T06:35:45.656Z,99963.98
2018-03-23T06:38:13.356Z,99956.75
2018-03-23T06:40:40.927Z,99957.35
2018-03-23T06:43:08.533Z,99955.54
2018-03-23T06:45:36.068Z,99957.00
2018-03-23T06:48:03.687Z,99959.93
2018-03-23T06:50:31.969Z,99950.41
2018-03-23T06:53:00.160Z,99951.78
2018-03-23T06:55:28.318Z,99942.59
2018-03-23T06:57:56.344Z,99948.47
2018-03-23T07:00:24.656Z,99948.08
2018-03-23T07:02:52.207Z,99954.45
2018-03-23T07:05:19.732Z,99949.02
2018-03-23T07:07:47.288Z,99950.04
2018-03-23T07:10:15.408Z,99941.61
2018-03-23T07:12:43.056Z,99950.05
2018-03-23T07:15:10.601Z,99949.98
2018-03-23T07:17:38.780Z,99954.34
2018-03-23T07:20:06.356Z,99949.75
2018-03-23T07:22:34.699Z,99951.16
2018-03-23T07:25:03.210Z,99957.00
2018-03-23T07:27:30.736Z,99957.32
2018-03-23T07:29:58.568Z,99957.91
2018-03-23T07:32:26.120Z,99950.64
2018-03-23T07:34:53.679Z,99950.97
2018-03-23T07:37:21.302Z,99954.87
2018-03-23T07:39:49.120Z,99961.71
2018-03-23T07:42:16.648Z,99956.45
2018-03-23T07:44:44.172Z,99964.05
2018-03-23T07:47:11.740Z,99958.78
2018-03-23T07:49:39.440Z,99958.77
2018-03-23T07:52:07.743Z,99964.91
2018-03-23T07:54:35.820Z,99958.27
2018-03-23T07:57:03.676Z,99956.13
2018-03-23T07:59:31.922Z,99957.80
2018-03-23T08:02:00.047Z,99952.73
2018-03-23T08:04:28.271Z,99950.91
2018-03-23T08:06:55.869Z,99956.27
2018-03-23T08:09:23.904Z,99948.07
2018-03-23T08:11:51.439Z,99944.86
2018-03-23T08:14:18.956Z,99948.33
2018-03-23T08:16:46.508Z,99945.11
2018-03-23T08:19:14.857Z,99942.58
2018-03-23T08:21:43.928Z,99941.73
2018-03-23T08:24:12.012Z,99945.06
2018-03-23T08:26:39.537Z,99957.47
2018-03-23T08:29:07.079Z,99954.82
2018-03-23T08:31:34.840Z,99955.46
2018-03-23T08:34:02.588Z,99956.62
2018-03-23T08:36:30.111Z,99953.17
2018-03-23T08:38:57.663Z,99958.98
2018-03-23T08:41:25.189Z,99956.14
2018-03-23T08:43:52.729Z,99958.98
2018-03-23T08:46:20.609Z,99949.69
2018-03-23T08:48:48.240Z,99952.30
2018-03-23T08:51:16.622Z,99949.58
2018-03-23T08:53:44.141Z,99946.49
2018-03-23T08:56:12.752Z,99950.80
2018-03-23T08:58:40.972Z,99951.75
2018-03-23T09:01:08.969Z,99948.63
2018-03-23T09:03:36.496Z,99945.32
2018-03-23T09:06:04.272Z,99947.75
2018-03-23T09:08:32.817Z,99945.59
2018-03-23T09:11:00.451Z,99940.85
2018-03-23T09:13:27.978Z,99942.91
2018-03-23T09:15:55.537Z,99945.77
2018-03-23T09:18:23.554Z,99947.73
2018-03-23T09:20:51.687Z,99937.11
2018-03-23T09:23:19.200Z,99941.53
2018-03-23T09:25:47.548Z,99938.14
2018-03-23T09:28:16.077Z,99929.72
2018-03-23T09:30:43.816Z,99933.91
2018-03-23T09:33:11.366Z,99931.13
2018-03-23T09:35:38.879Z,99929.30
2018-03-23T09:38:06.424Z,99928.89
2018-03-23T09:40:34.180Z,99926.88
2018-03-23T09:43:01.715Z,99923.95
2018-03-23T09:45:29.230Z,99927.35
2018-03-23T09:47:56.805Z,99925.37
2018-03-23T09:50:26.040Z,99918.08
2018-03-23T09:52:54.210Z,99918.27
2018-03-23T09:55:22.347Z,99919.77
2018-03-23T09:57:49.909Z,99914.35
2018-03-23T10:00:18.300Z,99906.97
2018-03-23T10:02:46.566Z,99909.76
2018-03-23T10:05:14.124Z,99901.96
2018-03-23T10:07:41.661Z,99904.84
2018-03-23T10:10:09.981Z,99896.13
2018-03-23T10:12:37.504Z,99894.20
2018-03-23T10:15:05.048Z,99891.35
2018-03-23T10:17:33.404Z,99887.87
2018-03-23T10:20:01.501Z,99882.73
2018-03-23T10:22:29.110Z,99888.43
2018-03-23T10:24:57.288Z,99881.06
2018-03-23T10:27:24.842Z,99878.90
2018-03-23T10:29:52.646Z,99881.64
2018-03-23T10:32:20.204Z,99882.99
2018-03-23T10:34:47.752Z,99881.30
2018-03-23T10:37:15.387Z,99880.52
2018-03-23T10:39:43.082Z,99882.47
2018-03-23T10:42:10.642Z,99877.98
2018-03-23T10:44:38.202Z,99873.63
2018-03-23T10:47:05.812Z,99869.08
2018-03-23T10:49:33.987Z,99871.04
2018-03-23T10:52:02.550Z,99875.84
2018-03-23T10:54:30.738Z,99875.43
2018-03-23T10:56:58.300Z,99870.08
2018-03-23T10:59:26.344Z,99870.08
2018-03-23T11:02:00.037Z,99868.76
2018-03-23T11:04:27.634Z,99864.33
2018-03-23T11:06:55.245Z,99863.48
2018-03-23T11:09:23.572Z,99863.88
2018-03-23T11:11:51.180Z,99865.70
2018-03-23T11:14:19.477Z,99867.66
2018-03-23T11:16:47.019Z,99863.53
2018-03-23T11:19:15.600Z,99858.95
2018-03-23T11:21:43.129Z,99854.59
2018-03-23T11:24:11.499Z,99860.47
2018-03-23T11:26:39.097Z,99850.34
2018-03-23T11:29:06.627Z,99858.61
2018-03-23T11:31:34.358Z,99857.22
2018-03-23T11:34:01.905Z,99849.61
2018-03-23T11:36:30.324Z,99847.48
2018-03-23T11:38:57.857Z,99850.46
2018-03-23T11:41:25.388Z,99840.73
2018-03-23T11:43:52.941Z,99839.20
2018-03-23T11:46:20.507Z,99837.22
2018-03-23T11:48:48.157Z,99833.31
2018-03-23T11:51:16.248Z,99841.02
2018-03-23T11:53:43.941Z,99835.77
2018-03-23T11:56:12.280Z,99829.75
2018-03-23T11:58:40.402Z,99832.72
2018-03-23T12:01:08.600Z,99830.27
2018-03-23T12:03:36.125Z,99822.59
2018-03-23T12:06:03.861Z,99826.56
2018-03-23T12:08:32.004Z,99820.63
2018-03-23T12:10:59.529Z,99829.02
2018-03-23T12:13:27.593Z,99817.24
2018-03-23T12:15:55.172Z,99819.47
2018-03-23T12:18:23.195Z,99816.70
2018-03-23T12:20:50.763Z,99813.00
2018-03-23T12:23:18.392Z,99819.89
2018-03-23T12:25:46.592Z,99809.85
2018-03-23T12:28:14.300Z,99814.78
2018-03-23T12:30:41.832Z,99812.67
2018-03-23T12:33:09.401Z,99813.72
2018-03-23T12:35:36.960Z,99813.11
2018-03-23T12:38:04.845Z,99816.59
2018-03-23T12:40:32.735Z,99810.95
2018-03-23T12:43:00.269Z,99806.77
2018-03-23T12:45:27.836Z,99804.61
2018-03-23T12:47:55.418Z,99800.59
2018-03-23T12:50:24.125Z,99800.73
2018-03-23T12:52:52.247Z,99796.43
2018-03-23T12:55:20.411Z,99794.35
2018-03-23T12:57:48.040Z,99793.14
2018-03-23T13:00:16.138Z,99789.34
2018-03-23T13:02:44.440Z,99782.89
2018-03-23T13:05:11.976Z,99785.75
2018-03-23T13:07:39.540Z,99777.23
2018-03-23T13:10:08.142Z,99778.06
2018-03-23T13:12:35.949Z,99775.07
2018-03-23T13:15:04.156Z,99776.11
2018-03-23T13:17:31.699Z,99776.69
2018-03-23T13:19:59.733Z,99773.95
2018-03-23T13:22:27.279Z,99775.06
2018-03-23T13:24:55.447Z,99771.26
2018-03-23T13:27:22.999Z,99768.19
2018-03-23T13:29:50.538Z,99772.41
2018-03-23T13:32:18.148Z,99762.89
2018-03-23T13:34:45.709Z,99759.17
2018-03-23T13:37:13.239Z,99757.21
2018-03-23T13:39:40.980Z,99758.84
2018-03-23T13:42:08.512Z,99752.68
2018-03-23T13:44:36.360Z,99745.91
2018-03-23T13:47:03.912Z,99748.13
2018-03-23T13:49:31.482Z,99747.79
2018-03-23T13:52:00.400Z,99744.50
2018-03-23T13:54:28.362Z,99744.55
2018-03-23T13:56:56.075Z,99742.77
2018-03-23T13:59:29.804Z,99746.60
2018-03-23T14:01:57.935Z,99746.95
2018-03-23T14:04:25.453Z,99741.18
2018-03-23T14:06:52.995Z,99731.31
2018-03-23T14:09:21.441Z,99730.70
2018-03-23T14:11:49.199Z,99729.87
2018-03-23T14:14:16.838Z,99726.98
2018-03-23T14:16:45.023Z,99717.20
2018-03-23T14:19:13.212Z,99726.56
2018-03-23T14:21:40.745Z,99727.11
2018-03-23T14:24:08.911Z,99727.69
2018-03-23T14:26:36.661Z,99724.34
2018-03-23T14:29:04.197Z,99725.14
2018-03-23T14:31:31.765Z,99722.53
2018-03-23T14:33:59.315Z,99723.48
2018-03-23T14:36:26.849Z,99719.06
2018-03-23T14:38:54.408Z,99712.77
2018-03-23T14:41:21.975Z,99710.81
2018-03-23T14:43:49.609Z,99699.70
2018-03-23T14:46:17.170Z,99703.52
2018-03-23T14:48:45.465Z,99699.61
2018-03-23T14:51:13.859Z,99700.11
2018-03-23T14:53:41.383Z,99695.38
2018-03-23T14:56:09.337Z,99697.48
2018-03-23T14:58:44.028Z,99701.19
2018-03-23T15:01:12.123Z,99696.95
2018-03-23T15:03:39.651Z,99695.48
2018-03-23T15:06:08.007Z,99688.15
2018-03-23T15:08:37.153Z,99680.13
2018-03-23T15:11:05.498Z,99679.84
2018-03-23T15:13:33.031Z,99684.55
2018-03-23T15:16:01.169Z,99674.36
2018-03-23T15:18:29.975Z,99675.07
2018-03-23T15:20:57.514Z,99663.70
2018-03-23T15:23:25.041Z,99665.34
2018-03-23T15:25:53.181Z,99658.66
2018-03-23T15:28:20.703Z,99659.12
2018-03-23T15:30:48.245Z,99655.55
2018-03-23T15:33:16.020Z,99653.97
2018-03-23T15:35:43.555Z,99658.50
2018-03-23T15:38:11.116Z,99656.59
2018-03-23T15:40:38.751Z,99661.05
2018-03-23T15:43:07.181Z,99659.61
2018-03-23T15:45:35.288Z,99659.52
2018-03-23T15:48:03.285Z,99659.27
2018-03-23T15:50:31.701Z,99653.84
2018-03-23T15:52:59.723Z,99655.66
2018-03-23T15:55:27.741Z,99657.31
2018-03-23T15:57:55.301Z,99649.92
2018-03-23T16:00:24.652Z,99651.00
2018-03-23T16:02:52.915Z,99649.90
2018-03-23T16:05:20.432Z,99648.38
2018-03-23T16:07:47.956Z,99644.63
2018-03-23T16:10:16.140Z,99648.73
2018-03-23T16:12:43.653Z,99650.69
2018-03-23T16:15:11.775Z,99646.38
2018-03-23T16:17:39.301Z,99646.31
2018-03-23T16:20:07.464Z,99648.55
2018-03-23T16:22:35.153Z,99647.25
2018-03-23T16:25:03.346Z,99643.98
2018-03-23T16:27:30.882Z,99639.08
2018-03-23T16:29:58.414Z,99647.08
2018-03-23T16:32:25.979Z,99646.47
2018-03-23T16:34:53.496Z,99652.07
2018-03-23T16:37:21.058Z,99646.91
2018-03-23T16:39:49.439Z,99649.77
2018-03-23T16:42:16.976Z,99648.52
2018-03-23T16:44:44.504Z,99644.58
2018-03-23T16:47:12.075Z,99641.88
2018-03-23T16:49:40.228Z,99641.10
2018-03-23T16:52:08.521Z,99637.94
2018-03-23T16:54:37.112Z,99638.70
2018-03-23T16:57:04.691Z,99637.30
2018-03-23T16:59:32.982Z,99634.36
2018-03-23T17:02:00.865Z,99620.95
2018-03-23T17:04:28.395Z,99622.38
2018-03-23T17:06:55.951Z,99628.56
2018-03-23T17:09:24.308Z,99631.95
2018-03-23T17:11:51.867Z,99630.09
2018-03-23T17:14:19.412Z,99622.50
2018-03-23T17:16:46.987Z,99622.49
2018-03-23T17:19:15.141Z,99624.46
2018-03-23T17:21:42.697Z,99628.55
2018-03-23T17:24:11.321Z,99633.14
2018-03-23T17:26:38.860Z,99633.86
2018-03-23T17:29:06.536Z,99636.73
2018-03-23T17:31:34.105Z,99632.20
2018-03-23T17:34:01.645Z,99640.28
2018-03-23T17:36:29.169Z,99633.09
2018-03-23T17:38:56.739Z,99635.95
2018-03-23T17:41:24.257Z,99636.42
2018-03-23T17:43:51.780Z,99638.88
2018-03-23T17:46:19.328Z,99640.48
2018-03-23T17:48:47.180Z,99637.59
2018-03-23T17:51:15.876Z,99638.31
2018-03-23T17:53:43.461Z,99633.67
2018-03-23T17:56:11.676Z,99631.38
2018-03-23T17:58:39.880Z,99634.53
2018-03-23T18:01:07.866Z,99638.60
2018-03-23T18:03:35.715Z,99637.70
2018-03-23T18:06:03.260Z,99643.22
2018-03-23T18:08:31.415Z,99641.73
2018-03-23T18:10:58.933Z,99644.06
2018-03-23T18:13:26.465Z,99646.75
2018-03-23T18:15:54.759Z,99648.59
2018-03-23T18:18:23.092Z,99647.61
2018-03-23T18:20:50.607Z,99648.78
2018-03-23T18:23:18.127Z,99647.64
2018-03-23T18:25:46.443Z,99654.66
2018-03-23T18:28:13.964Z,99659.22
2018-03-23T18:30:41.507Z,99655.42
2018-03-23T18:33:09.101Z,99656.67
2018-03-23T18:35:37.461Z,99661.12
2018-03-23T18:38:04.982Z,99654.48
2018-03-23T18:40:33.455Z,99662.60
2018-03-23T18:43:00.989Z,99663.98
2018-03-23T18:45:28.512Z,99665.72
2018-03-23T18:47:56.051Z,99665.68
2018-03-23T18:50:24.164Z,99668.30
2018-03-23T18:52:52.168Z,99668.03
2018-03-23T18:55:20.416Z,99670.46
2018-03-23T18:57:47.945Z,99681.45
2018-03-23T19:00:16.254Z,99678.66
2018-03-23T19:02:43.828Z,99676.69
2018-03-23T19:05:11.354Z,99677.70
2018-03-23T19:07:38.900Z,99685.44
2018-03-23T19:10:07.164Z,99680.63
2018-03-23T19:12:34.902Z,99685.03
2018-03-23T19:15:02.509Z,99689.13
2018-03-23T19:17:30.099Z,99682.17
2018-03-23T19:19:58.182Z,99679.89
2018-03-23T19:22:25.711Z,99687.30
2018-03-23T19:24:53.894Z,99683.92
2018-03-23T19:27:21.415Z,99687.77
2018-03-23T19:29:48.928Z,99676.64
2018-03-23T19:32:16.498Z,99679.66
2018-03-23T19:34:44.017Z,99679.47
2018-03-23T19:37:11.534Z,99684.33
2018-03-23T19:39:39.096Z,99678.59
2018-03-23T19:42:06.819Z,99675.07
2018-03-23T19:44:34.361Z,99675.62
2018-03-23T19:47:02.153Z,99675.60
2018-03-23T19:49:29.911Z,99674.73
2018-03-23T19:51:58.264Z,99681.49
2018-03-23T19:54:26.463Z,99677.47
2018-03-23T19:56:53.993Z,99682.11
2018-03-23T19:59:21.527Z,99679.00
2018-03-23T20:01:49.721Z,99685.89
2018-03-23T20:04:17.233Z,99679.84
2018-03-23T20:06:44.867Z,99674.67
2018-03-23T20:09:13.444Z,99676.77
2018-03-23T20:11:40.993Z,99681.31
2018-03-23T20:14:11.314Z,99684.68
2018-03-23T20:16:38.899Z,99687.45
2018-03-23T20:19:07.480Z,99682.31
2018-03-23T20:21:35.061Z,99675.39
2018-03-23T20:24:08.815Z,99682.27
2018-03-23T20:26:36.512Z,99682.06
2018-03-23T20:29:04.049Z,99682.91
2018-03-23T20:31:37.186Z,99677.95
2018-03-23T20:34:04.745Z,99670.30
2018-03-23T20:36:32.296Z,99674.83
2018-03-23T20:38:59.856Z,99678.68
2018-03-23T20:41:27.383Z,99680.12
2018-03-23T20:43:54.901Z,99676.05
2018-03-23T20:46:22.613Z,99672.11
2018-03-23T20:48:50.167Z,99677.22
2018-03-23T20:51:18.453Z,99679.30
2018-03-23T20:53:46.007Z,99681.39
2018-03-23T20:56:14.312Z,99686.38
2018-03-23T20:58:41.876Z,99687.43
2018-03-23T21:01:10.217Z,99687.77
2018-03-23T21:03:37.754Z,99683.83
2018-03-23T21:06:05.577Z,99682.88
2018-03-23T21:08:33.769Z,99682.31
2018-03-23T21:11:01.288Z,99678.20
2018-03-23T21:13:28.828Z,99670.36
2018-03-23T21:15:56.384Z,99674.63
2018-03-23T21:18:24.764Z,99681.98
2018-03-23T21:20:52.305Z,99675.22
2018-03-23T21:23:19.824Z,99672.34
2018-03-23T21:25:48.119Z,99670.45
2018-03-23T21:28:15.789Z,99671.20
2018-03-23T21:30:43.319Z,99668.93
2018-03-23T21:33:10.903Z,99672.33
2018-03-23T21:35:38.420Z,99666.47
2018-03-23T21:38:05.952Z,99671.11
2018-03-23T21:40:33.552Z,99670.09
2018-03-23T21:43:01.092Z,99672.25
2018-03-23T21:45:28.629Z,99668.21
2018-03-23T21:47:57.330Z,99665.52
2018-03-23T21:50:25.792Z,99660.08
2018-03-23T21:52:53.972Z,99665.13
2018-03-23T21:55:22.191Z,99661.33
2018-03-23T21:57:49.772Z,99664.89
2018-03-23T22:00:17.772Z,99661.47
2018-03-23T22:02:45.319Z,99656.28
2018-03-23T22:05:13.427Z,99658.67
2018-03-23T22:07:40.948Z,99650.05
2018-03-23T22:10:09.466Z,99652.38
2018-03-23T22:12:37.111Z,99654.20
2018-03-23T22:15:05.329Z,99657.45
2018-03-23T22:17:32.902Z,99662.74
2018-03-23T22:20:01.232Z,99653.59
2018-03-23T22:22:28.756Z,99654.75
2018-03-23T22:24:56.967Z,99654.28
2018-03-23T22:27:24.507Z,99650.08
2018-03-23T22:29:52.031Z,99642.48
2018-03-23T22:32:19.592Z,99642.81
2018-03-23T22:34:47.157Z,99644.47
2018-03-23T22:37:14.780Z,99642.33
2018-03-23T22:39:42.365Z,99643.77
2018-03-23T22:42:09.900Z,99642.61
2018-03-23T22:44:37.428Z,99646.41
2018-03-23T22:47:05.930Z,99650.70
2018-03-23T22:49:33.463Z,99653.17
2018-03-23T22:52:01.433Z,99654.44
2018-03-23T22:54:29.672Z,99656.17
2018-03-23T22:56:57.223Z,99653.45
2018-03-23T22:59:25.396Z,99652.79
2018-03-23T23:01:53.386Z,99647.27
2018-03-23T23:04:21.056Z,99653.39
2018-03-23T23:06:48.577Z,99657.84
2018-03-23T23:09:16.767Z,99656.85
2018-03-23T23:11:44.948Z,99653.55
2018-03-23T23:14:12.484Z,99651.27
2018-03-23T23:16:40.033Z,99654.23
2018-03-23T23:19:08.373Z,99656.53
2018-03-23T23:21:36.145Z,99652.52
2018-03-23T23:24:04.440Z,99652.27
2018-03-23T23:26:31.997Z,99646.00
2018-03-23T23:28:59.848Z,99654.98
2018-03-23T23:31:27.388Z,99650.45
2018-03-23T23:33:54.925Z,99643.94
2018-03-23T23:36:22.458Z,99654.23
2018-03-23T23:38:50.037Z,99659.09
2018-03-23T23:41:17.561Z,99653.19
2018-03-23T23:43:45.672Z,99654.34
2018-03-23T23:46:13.198Z,99652.61
2018-03-23T23:48:40.734Z,99653.52
2018-03-23T23:51:09.062Z,99652.61
2018-03-23T23:53:36.700Z,99657.30
2018-03-23T23:56:05.615Z,99653.42
2018-03-23T23:58:33.154Z,99657.28
